Time,TemperatureF,DewpointF,PressureIn,WindDirection,WindDirectionDegrees,WindSpeedMPH,WindSpeedGustMPH,Humidity,HourlyPrecipIn,Conditions,Clouds,dailyrainin,SoftwareType,DateUTC
2013-10-13 00:00:00,69.8,64.1,29.92,SSE,158,0.6,0.0,82,0.00,,FEW045,0.00,VWS V13.01,2013-10-12 14:00:00,
2013-10-13 00:15:00,69.8,64.1,29.91,SSE,158,0.6,1.3,82,0.00,,FEW045,0.00,VWS V13.01,2013-10-12 14:15:00,
2013-10-13 00:30:00,69.7,64.3,29.91,SSE,158,0.6,1.3,83,0.00,,FEW045,0.00,VWS V13.01,2013-10-12 14:30:00,
2013-10-13 00:45:00,69.6,64.2,29.90,SSE,158,0.6,0.0,83,0.00,,FEW045,0.00,VWS V13.01,2013-10-12 14:45:00,
2013-10-13 01:00:00,70.0,64.6,29.90,SSE,158,0.6,0.0,83,0.00,,FEW045,0.00,VWS V13.01,2013-10-12 15:00:00,
2013-10-13 01:15:00,70.4,64.7,29.90,SSE,158,0.6,1.3,82,0.00,,FEW045,0.00,VWS V13.01,2013-10-12 15:15:00,
2013-10-13 01:30:00,70.2,64.8,29.89,SSE,158,0.6,1.3,83,0.00,,FEW045,0.00,VWS V13.01,2013-10-12 15:30:00,
2013-10-13 01:45:00,70.1,64.4,29.88,SSE,158,0.6,1.3,82,0.00,,FEW045,0.00,VWS V13.01,2013-10-12 15:45:00,
2013-10-13 02:00:00,70.1,64.4,29.88,SSE,158,0.6,1.3,82,0.00,,FEW045,0.00,VWS V13.01,2013-10-12 16:00:00,
2013-10-13 02:15:00,70.1,64.7,29.88,SSE,158,0.6,0.0,83,0.00,,FEW045,0.00,VWS V13.01,2013-10-12 16:15:00,
2013-10-13 02:30:00,70.0,64.6,29.88,SSE,158,0.6,0.0,83,0.00,,FEW045,0.00,VWS V13.01,2013-10-12 16:30:00,
2013-10-13 02:45:00,69.7,64.3,29.87,SSE,158,0.6,0.0,83,0.00,,FEW045,0.00,VWS V13.01,2013-10-12 16:45:00,
2013-10-13 03:00:00,69.2,64.2,29.87,SSE,158,0.6,0.0,84,0.00,,FEW045,0.00,VWS V13.01,2013-10-12 17:00:00,
2013-10-13 03:15:00,68.8,64.4,29.87,SSE,158,0.6,0.0,86,0.00,,FEW045,0.00,VWS V13.01,2013-10-12 17:15:00,
2013-10-13 03:30:00,68.6,64.2,29.87,SSE,158,0.6,0.0,86,0.00,,FEW045,0.00,VWS V13.01,2013-10-12 17:30:00,
2013-10-13 03:45:00,68.7,64.3,29.87,SSE,158,0.6,0.0,86,0.00,,FEW045,0.00,VWS V13.01,2013-10-12 17:45:00,
2013-10-13 04:00:00,68.5,64.2,29.87,SSE,158,0.6,0.0,86,0.00,,FEW045,0.00,VWS V13.01,2013-10-12 18:00:00,
2013-10-13 04:15:00,68.5,64.5,29.87,SSE,158,0.6,0.0,87,0.00,,FEW045,0.00,VWS V13.01,2013-10-12 18:15:00,
2013-10-13 04:30:00,68.9,64.6,29.88,SSE,158,0.6,0.0,86,0.00,,FEW045,0.00,VWS V13.01,2013-10-12 18:30:00,
2013-10-13 04:45:00,69.1,64.7,29.88,SSE,158,0.6,0.0,86,0.00,,FEW045,0.00,VWS V13.01,2013-10-12 18:45:00,
2013-10-13 05:00:00,68.9,64.9,29.89,SSE,158,0.6,0.0,87,0.00,,FEW045,0.00,VWS V13.01,2013-10-12 19:00:00,
2013-10-13 05:15:00,68.7,64.7,29.89,SSE,158,0.6,0.0,87,0.00,,FEW045,0.00,VWS V13.01,2013-10-12 19:15:00,
2013-10-13 05:30:00,68.4,64.4,29.89,SSE,158,0.6,0.0,87,0.00,,FEW045,0.00,VWS V13.01,2013-10-12 19:30:00,
2013-10-13 05:45:00,68.3,64.6,29.90,SSE,158,0.6,0.0,88,0.00,,FEW045,0.00,VWS V13.01,2013-10-12 19:45:00,
2013-10-13 06:00:00,68.1,64.4,29.90,SSE,158,0.6,0.0,88,0.00,,FEW045,0.00,VWS V13.01,2013-10-12 20:00:00,
2013-10-13 06:15:00,68.1,64.7,29.90,SSE,158,0.6,0.0,89,0.00,,FEW045,0.00,VWS V13.01,2013-10-12 20:15:00,
2013-10-13 06:30:00,68.4,65.0,29.91,SSE,158,0.6,0.0,89,0.00,,FEW045,0.00,VWS V13.01,2013-10-12 20:30:00,
2013-10-13 06:45:00,69.8,65.4,29.91,SE,135,0.6,2.5,86,0.00,,FEW045,0.00,VWS V13.01,2013-10-12 20:45:00,
2013-10-13 07:00:00,72.8,65.9,29.92,SE,135,1.9,6.2,79,0.00,,FEW045,0.00,VWS V13.01,2013-10-12 21:00:00,
2013-10-13 07:15:00,75.2,66.7,29.92,SE,135,3.1,6.2,75,0.00,,FEW045,0.00,VWS V13.01,2013-10-12 21:15:00,
2013-10-13 07:30:00,77.1,67.4,29.93,SE,135,3.1,7.5,72,0.00,,FEW045,0.00,VWS V13.01,2013-10-12 21:30:00,
2013-10-13 07:45:00,78.3,67.7,29.93,SSE,158,4.4,11.3,70,0.00,,FEW045,0.00,VWS V13.01,2013-10-12 21:45:00,
2013-10-13 07:58:00,78.3,67.7,29.93,SSE,158,4.4,11.3,70,0.00,,FEW045,0.00,VWS V13.01,2013-10-12 21:58:00,
2013-10-13 08:00:00,79.9,68.8,29.93,SE,140,1.9,11.3,69,0.00,,FEW028,0.00,VWS V13.01,2013-10-12 22:00:00,
2013-10-13 08:03:00,80.2,68.7,29.93,SSE,151,3.1,11.3,68,0.00,,FEW028,0.00,VWS V13.01,2013-10-12 22:03:00,
2013-10-13 08:08:00,80.0,68.9,29.94,SE,134,3.1,11.3,69,0.00,,FEW028,0.00,VWS V13.01,2013-10-12 22:08:00,
2013-10-13 08:13:00,80.6,69.1,29.94,SSE,162,3.1,11.3,68,0.00,,FEW028,0.00,VWS V13.01,2013-10-12 22:13:00,
2013-10-13 08:18:00,81.1,69.1,29.94,SE,140,3.1,11.3,67,0.00,,FEW028,0.00,VWS V13.01,2013-10-12 22:18:00,
2013-10-13 08:30:00,81.1,69.6,29.94,SE,135,3.1,8.7,68,0.00,,FEW028,0.00,VWS V13.01,2013-10-12 22:30:00,
2013-10-13 08:45:00,81.3,69.3,29.94,SE,135,4.4,10.0,67,0.00,,FEW028,0.00,VWS V13.01,2013-10-12 22:45:00,
2013-10-13 09:00:00,81.2,68.8,29.94,SE,135,4.4,10.0,66,0.00,,FEW028,0.00,VWS V13.01,2013-10-12 23:00:00,
2013-10-13 09:15:00,83.4,68.6,29.94,SE,135,3.1,10.0,61,0.00,,FEW028,0.00,VWS V13.01,2013-10-12 23:15:00,
2013-10-13 09:30:00,83.8,68.9,29.94,SE,135,4.4,11.3,61,0.00,,FEW028,0.00,VWS V13.01,2013-10-12 23:30:00,
2013-10-13 09:45:00,84.6,69.2,29.94,SE,135,3.1,10.0,60,0.00,,FEW028,0.00,VWS V13.01,2013-10-12 23:45:00,
2013-10-13 10:00:00,83.8,70.3,29.93,ESE,112,5.6,13.7,64,0.00,,FEW028,0.00,VWS V13.01,2013-10-13 00:00:00,
2013-10-13 10:15:00,83.3,68.9,29.93,East,90,6.9,13.7,62,0.00,,FEW028,0.00,VWS V13.01,2013-10-13 00:15:00,
2013-10-13 10:30:00,83.7,70.2,29.93,East,90,8.1,16.3,64,0.00,,FEW028,0.00,VWS V13.01,2013-10-13 00:30:00,
2013-10-13 10:45:00,82.6,70.1,29.93,East,90,6.9,13.7,66,0.00,,FEW028,0.00,VWS V13.01,2013-10-13 00:45:00,
2013-10-13 11:00:00,82.5,70.0,29.92,ESE,112,4.4,11.3,66,0.00,,FEW028,0.00,VWS V13.01,2013-10-13 01:00:00,
2013-10-13 11:15:00,82.8,70.3,29.92,East,90,5.6,15.0,66,0.00,,FEW028,0.00,VWS V13.01,2013-10-13 01:15:00,
2013-10-13 11:30:00,83.2,70.7,29.91,East,90,5.6,11.3,66,0.00,,FEW028,0.00,VWS V13.01,2013-10-13 01:30:00,
2013-10-13 11:45:00,84.1,70.6,29.91,East,90,6.9,13.7,64,0.00,,FEW028,0.00,VWS V13.01,2013-10-13 01:45:00,
2013-10-13 12:00:00,84.7,71.2,29.90,East,90,6.9,12.5,64,0.00,,FEW028,0.00,VWS V13.01,2013-10-13 02:00:00,
2013-10-13 12:15:00,85.0,71.9,29.89,East,90,6.9,13.7,65,0.00,,FEW028,0.00,VWS V13.01,2013-10-13 02:15:00,
2013-10-13 12:30:00,84.4,73.1,29.88,ESE,112,6.9,13.7,69,0.00,,FEW028,0.00,VWS V13.01,2013-10-13 02:30:00,
2013-10-13 12:45:00,84.7,72.5,29.87,East,90,6.9,15.0,67,0.00,,FEW028,0.00,VWS V13.01,2013-10-13 02:45:00,
2013-10-13 13:00:00,84.8,73.1,29.87,East,90,6.9,15.0,68,0.00,,FEW028,0.00,VWS V13.01,2013-10-13 03:00:00,
2013-10-13 13:15:00,84.2,72.5,29.86,East,90,6.9,15.0,68,0.00,,FEW028,0.00,VWS V13.01,2013-10-13 03:15:00,
2013-10-13 13:30:00,84.5,71.9,29.86,East,90,6.9,13.7,66,0.00,,FEW028,0.00,VWS V13.01,2013-10-13 03:30:00,
2013-10-13 13:45:00,84.7,71.6,29.86,East,90,6.9,16.3,65,0.00,,FEW028,0.00,VWS V13.01,2013-10-13 03:45:00,
2013-10-13 14:00:00,84.2,72.5,29.85,East,90,6.9,16.3,68,0.00,,FEW028,0.00,VWS V13.01,2013-10-13 04:00:00,
2013-10-13 14:15:00,83.8,72.6,29.84,East,90,6.9,16.3,69,0.00,,FEW028,0.00,VWS V13.01,2013-10-13 04:15:00,
2013-10-13 14:30:00,84.1,72.8,29.84,ESE,112,5.6,12.5,69,0.00,,FEW028,0.00,VWS V13.01,2013-10-13 04:30:00,
2013-10-13 14:45:00,84.4,73.1,29.83,East,90,6.9,12.5,69,0.00,,FEW028,0.00,VWS V13.01,2013-10-13 04:45:00,
2013-10-13 15:00:00,83.7,72.9,29.83,East,90,6.9,16.3,70,0.00,,FEW028,0.00,VWS V13.01,2013-10-13 05:00:00,
2013-10-13 15:15:00,82.9,72.9,29.83,SE,135,6.9,13.7,72,0.00,,FEW028,0.00,VWS V13.01,2013-10-13 05:15:00,
2013-10-13 15:30:00,83.0,72.2,29.83,SE,135,4.4,11.3,70,0.00,,FEW028,0.00,VWS V13.01,2013-10-13 05:30:00,
2013-10-13 15:45:00,83.4,72.2,29.82,East,90,5.6,11.3,69,0.00,,FEW028,0.00,VWS V13.01,2013-10-13 05:45:00,
2013-10-13 16:00:00,82.8,72.4,29.82,ESE,112,5.6,11.3,71,0.00,,FEW028,0.00,VWS V13.01,2013-10-13 06:00:00,
2013-10-13 16:15:00,82.6,73.1,29.82,ESE,112,4.4,8.7,73,0.00,,FEW028,0.00,VWS V13.01,2013-10-13 06:15:00,
2013-10-13 16:30:00,82.0,73.3,29.82,ESE,112,5.6,12.5,75,0.00,,FEW028,0.00,VWS V13.01,2013-10-13 06:30:00,
2013-10-13 16:45:00,81.4,73.1,29.83,East,90,5.6,12.5,76,0.00,,FEW028,0.00,VWS V13.01,2013-10-13 06:45:00,
2013-10-13 17:00:00,80.7,73.6,29.83,ESE,112,5.6,15.0,79,0.00,,FEW028,0.00,VWS V13.01,2013-10-13 07:00:00,
2013-10-13 17:15:00,80.6,73.9,29.83,SE,135,4.4,10.0,80,0.00,,FEW028,0.00,VWS V13.01,2013-10-13 07:15:00,
2013-10-13 17:30:00,80.1,73.4,29.84,SE,135,4.4,10.0,80,0.00,,FEW028,0.00,VWS V13.01,2013-10-13 07:30:00,
2013-10-13 17:45:00,79.7,73.7,29.84,SE,135,1.9,6.2,82,0.00,,FEW028,0.00,VWS V13.01,2013-10-13 07:45:00,
2013-10-13 18:00:00,79.6,73.6,29.85,ESE,112,3.1,8.7,82,0.00,,FEW028,0.00,VWS V13.01,2013-10-13 08:00:00,
2013-10-13 18:15:00,79.4,73.4,29.85,ESE,112,3.1,7.5,82,0.00,,FEW028,0.00,VWS V13.01,2013-10-13 08:15:00,
2013-10-13 18:30:00,79.2,73.6,29.86,ESE,112,3.1,6.2,83,0.00,,FEW028,0.00,VWS V13.01,2013-10-13 08:30:00,
2013-10-13 18:45:00,79.2,73.6,29.87,SE,135,3.1,6.2,83,0.00,,FEW028,0.00,VWS V13.01,2013-10-13 08:45:00,
2013-10-13 19:00:00,79.1,73.8,29.87,SE,135,3.1,8.7,84,0.00,,FEW028,0.00,VWS V13.01,2013-10-13 09:00:00,
2013-10-13 19:15:00,79.0,73.8,29.87,ESE,112,3.1,8.7,84,0.00,,FEW028,0.00,VWS V13.01,2013-10-13 09:15:00,
2013-10-13 19:30:00,79.0,74.1,29.88,SE,135,1.9,3.8,85,0.00,,FEW028,0.00,VWS V13.01,2013-10-13 09:30:00,
2013-10-13 19:45:00,78.9,74.0,29.88,SE,135,1.9,5.0,85,0.00,,FEW028,0.00,VWS V13.01,2013-10-13 09:45:00,
2013-10-13 20:00:00,78.8,73.9,29.88,ESE,112,1.9,6.2,85,0.00,,FEW028,0.00,VWS V13.01,2013-10-13 10:00:00,
2013-10-13 20:15:00,78.8,73.9,29.88,ESE,112,1.9,6.2,85,0.00,,FEW028,0.00,VWS V13.01,2013-10-13 10:15:00,
2013-10-13 20:30:00,78.8,73.9,29.89,SE,135,1.9,3.8,85,0.00,,FEW028,0.00,VWS V13.01,2013-10-13 10:30:00,
2013-10-13 20:45:00,78.7,74.2,29.90,SE,135,1.9,5.0,86,0.00,,FEW028,0.00,VWS V13.01,2013-10-13 10:45:00,
2013-10-13 21:00:00,78.7,74.2,29.90,ESE,112,1.9,5.0,86,0.00,,FEW028,0.00,VWS V13.01,2013-10-13 11:00:00,
2013-10-13 21:15:00,78.7,74.2,29.90,ESE,112,1.9,5.0,86,0.00,,FEW028,0.00,VWS V13.01,2013-10-13 11:15:00,
2013-10-13 21:30:00,78.7,74.2,29.90,SE,135,1.9,5.0,86,0.00,,FEW028,0.00,VWS V13.01,2013-10-13 11:30:00,
2013-10-13 21:45:00,78.7,74.2,29.91,SE,135,1.9,5.0,86,0.00,,FEW028,0.00,VWS V13.01,2013-10-13 11:45:00,
2013-10-13 22:00:00,78.5,74.3,29.91,SE,135,1.9,3.8,87,0.00,,FEW028,0.00,VWS V13.01,2013-10-13 12:00:00,
2013-10-13 22:15:00,78.4,74.2,29.91,SE,135,1.9,3.8,87,0.00,,FEW028,0.00,VWS V13.01,2013-10-13 12:15:00,
2013-10-13 22:30:00,78.4,74.2,29.90,SE,135,1.9,5.0,87,0.00,,FEW028,0.00,VWS V13.01,2013-10-13 12:30:00,
2013-10-13 22:45:00,78.5,74.3,29.90,SE,135,1.9,3.8,87,0.00,,FEW028,0.00,VWS V13.01,2013-10-13 12:45:00,
2013-10-13 23:00:00,78.5,74.3,29.90,SE,135,0.6,2.5,87,0.00,,FEW028,0.00,VWS V13.01,2013-10-13 13:00:00,
2013-10-13 23:15:00,78.3,74.1,29.90,SE,135,1.9,5.0,87,0.00,,FEW028,0.00,VWS V13.01,2013-10-13 13:15:00,
2013-10-13 23:30:00,78.3,74.1,29.90,SE,135,1.9,3.8,87,0.00,,FEW028,0.00,VWS V13.01,2013-10-13 13:30:00,
2013-10-13 23:45:00,78.3,74.1,29.89,ESE,112,1.9,6.2,87,0.00,,FEW028,0.00,VWS V13.01,2013-10-13 13:45:00,